Time;durP1;ratioP1;P1;durP2;ratioP2;P2;SDS_P1;SDS_P2;PMS_P1;PMS_P2;Temp;Humidity;BMP_temperature;BMP_pressure;BME280_temperature;BME280_humidity;BME280_pressure;Samples;Min_cycle;Max_cycle;Signal;HPM_P1;HPM_P2
2023/04/22 00:00:17;;;;;;;6.55;3.55;;;;;;;23.10;38.93;99454.91;4332626;33;33370;-63
2023/04/22 00:02:45;;;;;;;6.55;4.00;;;;;;;23.11;38.94;99462.84;4332724;33;34662;-62
2023/04/22 00:05:13;;;;;;;6.60;3.53;;;;;;;23.10;38.90;99468.53;4332117;33;33945;-61
2023/04/22 00:07:46;;;;;;;8.98;3.97;;;;;;;23.10;38.87;99461.19;4332606;33;33459;-62
2023/04/22 00:10:14;;;;;;;6.22;4.05;;;;;;;23.11;38.90;99468.28;4332648;33;34451;-62
2023/04/22 00:12:41;;;;;;;5.70;3.50;;;;;;;23.08;38.95;99462.47;4332418;33;34749;-62
2023/04/22 00:15:09;;;;;;;7.87;4.20;;;;;;;23.09;38.98;99464.16;4332479;33;34331;-62
2023/04/22 00:17:37;;;;;;;7.40;3.85;;;;;;;23.09;39.02;99464.16;4332936;33;33615;-62
2023/04/22 00:20:06;;;;;;;6.15;3.85;;;;;;;23.09;39.07;99464.16;4332600;33;34786;-62
2023/04/22 00:22:34;;;;;;;6.70;4.03;;;;;;;23.09;39.09;99458.72;4332391;33;34166;-62
2023/04/22 00:25:01;;;;;;;6.35;4.05;;;;;;;23.11;39.10;99465.56;4332650;33;34587;-61
2023/04/22 00:27:29;;;;;;;8.30;4.00;;;;;;;23.09;39.06;99459.53;4332529;33;33544;-62
2023/04/22 00:29:56;;;;;;;6.07;3.78;;;;;;;23.09;39.13;99459.53;4332379;33;33984;-61
2023/04/22 00:32:25;;;;;;;7.03;3.58;;;;;;;23.09;39.14;99462.25;4332547;33;34142;-61
2023/04/22 00:34:53;;;;;;;8.77;3.90;;;;;;;23.09;39.19;99464.16;4332445;33;33839;-62
2023/04/22 00:37:20;;;;;;;8.20;3.67;;;;;;;23.09;39.18;99473.16;4332250;33;33718;-62
2023/04/22 00:39:48;;;;;;;6.37;3.25;;;;;;;23.09;39.24;99466.87;4332477;33;34032;-62
2023/04/22 00:42:15;;;;;;;5.72;3.60;;;;;;;23.10;39.29;99460.37;4332310;33;33662;-62
2023/04/22 00:44:43;;;;;;;7.72;3.80;;;;;;;23.09;39.33;99461.44;4332549;33;34038;-61
2023/04/22 00:47:11;;;;;;;5.82;3.58;;;;;;;23.07;39.27;99458.91;4307296;33;34145;-62
2023/04/22 00:49:39;;;;;;;7.22;3.45;;;;;;;23.07;39.31;99464.38;4332469;33;33684;-62
2023/04/22 00:52:07;;;;;;;8.40;3.78;;;;;;;23.06;39.32;99457.28;4332281;33;34915;-62
2023/04/22 00:54:35;;;;;;;7.65;3.60;;;;;;;23.07;39.27;99458.09;4332357;33;33926;-62
2023/04/22 00:57:02;;;;;;;7.85;3.12;;;;;;;23.08;39.31;99462.47;4319072;33;33537;-62
2023/04/22 00:59:30;;;;;;;7.72;3.53;;;;;;;23.06;39.25;99449.09;4318923;33;34914;-62
2023/04/22 01:01:58;;;;;;;6.12;3.95;;;;;;;23.08;39.10;99454.31;4332558;33;33800;-62
2023/04/22 01:04:25;;;;;;;7.68;3.80;;;;;;;23.07;39.17;99455.38;4307155;33;34666;-62
2023/04/22 01:06:53;;;;;;;5.18;3.42;;;;;;;23.07;39.25;99452.66;4332243;33;33915;-62
2023/04/22 01:09:21;;;;;;;7.97;3.90;;;;;;;23.06;39.34;99460.00;4332291;33;33790;-62
2023/04/22 01:11:48;;;;;;;7.32;3.40;;;;;;;23.05;39.41;99457.50;4316456;33;33584;-62
2023/04/22 01:14:16;;;;;;;7.12;3.47;;;;;;;23.06;39.47;99461.88;4317570;33;35132;-61
2023/04/22 01:16:43;;;;;;;6.28;3.92;;;;;;;23.06;39.48;99464.59;4317381;33;33475;-61
2023/04/22 01:19:11;;;;;;;5.43;3.00;;;;;;;23.06;39.48;99459.16;4316347;33;32571;-61
2023/04/22 01:21:39;;;;;;;6.22;3.30;;;;;;;23.07;39.38;99466.25;4317541;33;34514;-61
2023/04/22 01:24:07;;;;;;;7.68;3.47;;;;;;;23.06;39.40;99470.88;4317434;33;34903;-62
2023/04/22 01:26:35;;;;;;;6.00;3.50;;;;;;;23.06;39.45;99468.16;4317698;33;34200;-62
2023/04/22 01:29:03;;;;;;;6.93;3.70;;;;;;;23.05;39.45;99468.41;4317564;33;33546;-62
2023/04/22 01:31:31;;;;;;;6.60;3.25;;;;;;;23.04;39.46;99474.91;4317530;33;33941;-62
2023/04/22 01:33:58;;;;;;;7.50;3.33;;;;;;;23.02;39.45;99461.50;4316096;33;33861;-62
2023/04/22 01:36:26;;;;;;;5.68;3.50;;;;;;;23.02;39.45;99472.41;4316148;33;33300;-62
2023/04/22 01:38:54;;;;;;;5.62;3.55;;;;;;;23.03;39.45;99471.31;4317523;33;33691;-62
2023/04/22 01:41:21;;;;;;;6.00;3.80;;;;;;;23.02;39.49;99475.13;4304153;33;33693;-62
2023/04/22 01:43:50;;;;;;;6.97;3.72;;;;;;;23.02;39.50;99472.41;4317698;33;34099;-62
2023/04/22 01:46:17;;;;;;;6.10;3.50;;;;;;;23.02;39.47;99477.84;4316463;33;33436;-62
2023/04/22 01:48:51;;;;;;;7.45;3.70;;;;;;;23.01;39.49;99476.19;4317184;33;34931;-62
2023/04/22 01:51:20;;;;;;;5.35;3.30;;;;;;;23.01;39.51;99476.19;4317334;33;33703;-61
2023/04/22 01:53:48;;;;;;;6.65;3.83;;;;;;;23.01;39.49;99473.47;4315895;33;34358;-61
2023/04/22 01:56:15;;;;;;;6.87;3.53;;;;;;;23.00;39.50;99474.53;4317204;33;34337;-61
2023/04/22 01:58:43;;;;;;;5.60;3.47;;;;;;;23.01;39.50;99473.47;4317582;33;34015;-62
2023/04/22 02:01:11;;;;;;;6.60;3.20;;;;;;;23.01;39.51;99469.91;4317258;33;34907;-62
2023/04/22 02:03:39;;;;;;;5.97;3.53;;;;;;;23.01;39.50;99468.03;4317009;33;34532;-61
2023/04/22 02:06:07;;;;;;;10.43;3.37;;;;;;;23.01;39.52;99461.75;4317599;33;33457;-62
2023/04/22 02:08:35;;;;;;;6.32;3.72;;;;;;;23.02;39.49;99471.56;4316203;33;34415;-62
2023/04/22 02:11:05;;;;;;;5.95;3.12;;;;;;;23.02;39.46;99461.50;4318808;33;35156;-62
2023/04/22 02:13:36;;;;;;;7.78;3.55;;;;;;;23.02;39.37;99463.41;4318610;33;34535;-62
2023/04/22 02:16:04;;;;;;;6.65;3.70;;;;;;;23.03;39.39;99465.88;4331690;33;34352;-62
2023/04/22 02:18:32;;;;;;;6.78;3.67;;;;;;;23.03;39.31;99465.06;4331811;33;34209;-62
2023/04/22 02:21:00;;;;;;;5.95;2.92;;;;;;;23.04;39.40;99467.56;4331673;33;34871;-62
2023/04/22 02:23:27;;;;;;;7.22;3.70;;;;;;;23.04;39.46;99462.13;4331708;33;33740;-62
2023/04/22 02:25:55;;;;;;;7.37;3.35;;;;;;;23.03;39.45;99457.72;4331754;33;33647;-62
2023/04/22 02:28:23;;;;;;;6.35;3.47;;;;;;;23.02;39.44;99461.50;4330679;33;34953;-62
2023/04/22 02:30:51;;;;;;;7.15;3.78;;;;;;;23.02;39.51;99464.22;4331527;33;34917;-62
2023/04/22 02:33:20;;;;;;;7.10;3.00;;;;;;;23.02;39.51;99460.69;4331840;33;33663;-62
2023/04/22 02:35:48;;;;;;;6.80;3.00;;;;;;;23.01;39.52;99465.31;4331634;33;34173;-62
2023/04/22 02:38:15;;;;;;;5.22;3.03;;;;;;;23.02;39.55;99461.50;4331527;33;33555;-62
2023/04/22 02:40:43;;;;;;;5.30;2.90;;;;;;;23.01;39.53;99461.75;4318183;33;34028;-63
2023/04/22 02:43:11;;;;;;;5.82;2.90;;;;;;;23.01;39.54;99464.47;4331495;33;34844;-62
2023/04/22 02:45:39;;;;;;;7.60;3.40;;;;;;;23.00;39.56;99460.09;4331331;33;33471;-62
2023/04/22 02:48:07;;;;;;;6.45;2.83;;;;;;;22.99;39.57;99461.13;4331442;33;33752;-61
2023/04/22 02:50:35;;;;;;;4.07;2.83;;;;;;;23.00;39.57;99460.09;4331294;33;34959;-62
2023/04/22 02:53:02;;;;;;;4.68;3.03;;;;;;;23.00;39.58;99460.09;4318118;33;34490;-62
2023/04/22 02:55:30;;;;;;;7.75;3.65;;;;;;;22.99;39.62;99461.13;4331399;33;33237;-62
2023/04/22 02:57:58;;;;;;;5.68;2.83;;;;;;;22.99;39.64;99456.56;4331196;33;34049;-62
2023/04/22 03:00:25;;;;;;;6.75;3.47;;;;;;;22.99;39.68;99459.28;4331111;33;34819;-62
2023/04/22 03:02:53;;;;;;;4.85;2.90;;;;;;;22.99;39.70;99455.69;4331349;33;34233;-62
2023/04/22 03:05:21;;;;;;;7.43;3.40;;;;;;;22.99;39.70;99456.56;4331427;33;33604;-62
2023/04/22 03:07:49;;;;;;;6.32;3.60;;;;;;;23.01;39.73;99461.75;4330985;33;33941;-62
2023/04/22 03:10:17;;;;;;;5.68;3.22;;;;;;;23.00;39.73;99462.81;4331043;33;33719;-62
2023/04/22 03:12:44;;;;;;;8.73;3.17;;;;;;;22.99;39.76;99461.13;4331248;33;33481;-62
2023/04/22 03:15:12;;;;;;;5.78;3.10;;;;;;;22.99;39.73;99459.28;4331162;33;34171;-62
2023/04/22 03:17:40;;;;;;;5.62;3.08;;;;;;;23.00;39.72;99468.25;4331290;33;34103;-61
2023/04/22 03:20:08;;;;;;;5.93;3.40;;;;;;;22.99;39.73;99462.00;4331003;33;34222;-62
2023/04/22 03:22:36;;;;;;;7.75;3.58;;;;;;;22.99;39.77;99467.44;4330707;33;33708;-61
2023/04/22 03:25:05;;;;;;;6.68;3.35;;;;;;;23.00;39.76;99462.81;4331171;33;33325;-62
2023/04/22 03:27:32;;;;;;;6.10;3.35;;;;;;;22.99;39.80;99470.16;4331053;33;34817;-62
2023/04/22 03:30:00;;;;;;;5.62;3.40;;;;;;;23.00;39.81;99473.72;4330607;33;34101;-62
2023/04/22 03:32:29;;;;;;;8.13;3.83;;;;;;;23.00;39.75;99469.09;4331116;33;33852;-62
2023/04/22 03:34:58;;;;;;;6.32;3.22;;;;;;;23.00;39.77;99474.53;4330959;33;33597;-62
2023/04/22 03:37:26;;;;;;;4.87;3.05;;;;;;;22.99;39.82;99478.31;4330965;33;34751;-62
2023/04/22 03:39:54;;;;;;;6.90;3.37;;;;;;;22.98;39.82;99481.25;4332605;33;33994;-62
2023/04/22 03:42:22;;;;;;;8.23;3.30;;;;;;;22.98;39.82;99475.81;4332997;33;33691;-61
2023/04/22 03:44:49;;;;;;;6.37;2.90;;;;;;;22.97;39.83;99474.16;4332830;33;33403;-62
2023/04/22 03:47:18;;;;;;;6.22;3.05;;;;;;;22.96;39.84;99478.78;4333068;33;33812;-61
2023/04/22 03:49:46;;;;;;;6.35;3.28;;;;;;;22.96;39.85;99476.06;4332652;33;33600;-61
2023/04/22 03:52:14;;;;;;;10.27;3.42;;;;;;;22.96;39.87;99483.37;4332983;33;34260;-62
2023/04/22 03:54:42;;;;;;;5.68;3.15;;;;;;;22.96;39.87;99480.66;4333104;33;33814;-61
2023/04/22 03:57:10;;;;;;;5.18;2.53;;;;;;;22.95;39.90;99474.41;4332863;33;33188;-61
2023/04/22 03:59:38;;;;;;;7.28;3.25;;;;;;;22.95;39.89;99481.72;4332921;33;34816;-62
2023/04/22 04:02:07;;;;;;;5.28;3.15;;;;;;;22.95;39.89;99479.84;4332976;33;34311;-62
2023/04/22 04:04:35;;;;;;;8.68;3.55;;;;;;;22.94;39.91;99480.88;4332637;33;34138;-62
2023/04/22 04:07:03;;;;;;;5.70;2.80;;;;;;;22.96;39.90;99480.66;4332977;33;33756;-61
2023/04/22 04:09:31;;;;;;;5.07;3.00;;;;;;;22.95;39.90;99481.72;4332938;33;33895;-61
2023/04/22 04:11:59;;;;;;;5.45;3.00;;;;;;;22.95;39.91;99481.72;4332202;33;34067;-62
2023/04/22 04:14:27;;;;;;;11.27;3.55;;;;;;;22.94;39.91;99483.59;4332967;33;33788;-62
2023/04/22 04:16:54;;;;;;;9.20;3.00;;;;;;;22.94;39.91;99485.50;4332756;33;33593;-62
2023/04/22 04:19:23;;;;;;;4.28;2.95;;;;;;;22.93;39.93;99487.38;4332412;33;34866;-62
2023/04/22 04:21:50;;;;;;;5.43;3.35;;;;;;;22.93;39.92;99490.09;4332716;33;33979;-62
2023/04/22 04:24:18;;;;;;;6.45;3.42;;;;;;;22.94;39.92;99486.31;4332738;33;34258;-62
2023/04/22 04:26:47;;;;;;;4.43;2.97;;;;;;;22.93;39.93;99490.09;4332805;33;34866;-62
2023/04/22 04:29:15;;;;;;;4.30;2.85;;;;;;;22.94;39.94;99490.94;4332675;33;34064;-62
2023/04/22 04:31:44;;;;;;;5.72;3.10;;;;;;;22.92;39.96;99496.63;4332794;33;33970;-62
2023/04/22 04:34:12;;;;;;;6.32;2.95;;;;;;;22.93;39.97;99501.00;4332421;33;33238;-62
2023/04/22 04:36:40;;;;;;;5.50;3.30;;;;;;;22.94;39.97;99499.09;4332384;33;34915;-62
2023/04/22 04:39:08;;;;;;;4.93;3.12;;;;;;;22.91;39.99;99500.41;4332671;33;34856;-62
2023/04/22 04:41:37;;;;;;;4.78;2.90;;;;;;;22.93;40.01;99498.28;4332596;33;33989;-62
2023/04/22 04:44:06;;;;;;;7.85;3.12;;;;;;;22.93;40.00;99506.44;4332615;33;33713;-62
2023/04/22 04:46:36;;;;;;;5.70;2.70;;;;;;;22.93;39.99;99509.16;4332573;33;34659;-62
2023/04/22 04:49:05;;;;;;;5.20;3.05;;;;;;;22.94;39.98;99512.69;4332781;33;33518;-62
2023/04/22 04:51:34;;;;;;;7.05;2.53;;;;;;;22.95;39.92;99517.09;4332084;33;34560;-61
2023/04/22 04:54:02;;;;;;;5.40;3.22;;;;;;;22.95;39.88;99514.38;4332230;33;33332;-62
2023/04/22 04:56:30;;;;;;;6.20;2.80;;;;;;;22.95;39.93;99512.50;4332662;33;34731;-62
2023/04/22 04:58:58;;;;;;;6.37;3.33;;;;;;;22.95;39.98;99514.38;4332144;33;34967;-61
2023/04/22 05:01:25;;;;;;;6.03;2.85;;;;;;;22.94;40.00;99516.25;4332516;33;33869;-61
2023/04/22 05:03:55;;;;;;;7.37;2.97;;;;;;;22.94;39.99;99521.69;4332549;33;33566;-61
2023/04/22 05:06:23;;;;;;;5.45;2.97;;;;;;;22.95;40.00;99517.94;4332104;33;34119;-61
2023/04/22 05:08:51;;;;;;;4.90;2.62;;;;;;;22.96;39.99;99525.03;4332324;33;34182;-61
2023/04/22 05:11:18;;;;;;;4.57;2.45;;;;;;;22.95;40.01;99523.38;4332428;33;33788;-61
2023/04/22 05:13:48;;;;;;;5.10;2.83;;;;;;;22.96;39.99;99526.91;4332498;33;33374;-62
2023/04/22 05:16:17;;;;;;;6.30;3.03;;;;;;;22.96;39.97;99522.31;4332153;33;33991;-62
2023/04/22 05:18:45;;;;;;;5.03;2.33;;;;;;;22.96;40.02;99527.75;4332448;33;34831;-61
2023/04/22 05:21:14;;;;;;;5.22;2.80;;;;;;;22.96;40.03;99529.63;4332359;33;34724;-62
2023/04/22 05:23:42;;;;;;;4.50;2.90;;;;;;;22.96;40.01;99521.47;4332353;33;33551;-61
2023/04/22 05:26:29;;;;;;;6.87;3.37;;;;;;;22.95;39.99;99523.38;4332143;33;34757;-61
2023/04/22 05:28:56;;;;;;;7.57;3.05;;;;;;;22.98;40.00;99524.78;4318779;33;33670;-61
2023/04/22 05:31:24;;;;;;;8.25;2.65;;;;;;;22.96;39.86;99519.59;4332043;33;34174;-61
2023/04/22 05:33:52;;;;;;;5.82;2.90;;;;;;;22.97;39.82;99517.69;4332051;33;34178;-62
2023/04/22 05:36:20;;;;;;;4.68;2.53;;;;;;;22.98;39.83;99522.06;4331865;33;34526;-61
2023/04/22 05:38:47;;;;;;;4.43;2.70;;;;;;;22.98;39.83;99520.16;4332264;33;34019;-61
2023/04/22 05:41:15;;;;;;;5.78;2.70;;;;;;;22.98;39.83;99522.88;4332223;33;33727;-61
2023/04/22 05:43:43;;;;;;;7.68;2.87;;;;;;;22.99;39.79;99521.84;4332042;33;31734;-61
2023/04/22 05:46:13;;;;;;;5.75;2.42;;;;;;;22.99;39.76;99527.31;4332036;33;34637;-61
2023/04/22 05:48:41;;;;;;;4.95;2.45;;;;;;;22.99;39.78;99526.44;4318569;33;33661;-61
2023/04/22 05:51:09;;;;;;;6.10;2.62;;;;;;;23.00;39.85;99528.13;4332237;33;33937;-61
2023/04/22 05:53:37;;;;;;;4.87;2.50;;;;;;;23.00;39.79;99531.66;4331439;33;33115;-61
2023/04/22 05:56:05;;;;;;;5.47;2.70;;;;;;;22.99;39.77;99535.47;4331867;33;32873;-61
2023/04/22 05:58:32;;;;;;;5.40;2.90;;;;;;;22.99;39.77;99532.75;4332181;33;33588;-61
2023/04/22 06:01:00;;;;;;;4.50;2.65;;;;;;;22.99;39.76;99532.75;4331575;33;34017;-61
2023/04/22 06:03:29;;;;;;;5.80;2.75;;;;;;;23.01;39.77;99535.22;4330808;33;33347;-61
2023/04/22 06:05:56;;;;;;;4.35;2.67;;;;;;;23.00;39.79;99531.66;4332014;33;34573;-62
2023/04/22 06:08:24;;;;;;;5.57;2.70;;;;;;;23.01;39.82;99538.78;4331735;33;34032;-61
2023/04/22 06:10:52;;;;;;;5.22;2.80;;;;;;;23.00;39.72;99536.28;4331586;33;34056;-62
2023/04/22 06:13:20;;;;;;;4.72;2.42;;;;;;;23.00;39.65;99539.84;4331837;33;34167;-61
2023/04/22 06:15:47;;;;;;;5.93;3.00;;;;;;;23.01;39.65;99540.66;4332083;33;35273;-62
2023/04/22 06:18:15;;;;;;;4.55;2.37;;;;;;;23.00;39.69;99544.44;4331484;33;33973;-62
2023/04/22 06:20:42;;;;;;;6.85;3.80;;;;;;;23.01;39.99;99538.78;4331636;33;34128;-62
2023/04/22 06:23:11;;;;;;;7.55;4.10;;;;;;;23.02;39.55;99540.44;4331954;33;33688;-63
2023/04/22 06:25:39;;;;;;;11.93;4.35;;;;;;;22.99;39.06;99553.66;4331453;33;34155;-61
2023/04/22 06:28:06;;;;;;;12.35;4.18;;;;;;;22.98;38.91;99544.66;4318535;33;33986;-63
2023/04/22 06:30:34;;;;;;;12.43;3.78;;;;;;;22.98;38.92;99543.84;4331704;33;34721;-63
2023/04/22 06:33:02;;;;;;;8.85;3.90;;;;;;;22.96;38.92;99549.50;4331416;33;33940;-63
2023/04/22 06:35:30;;;;;;;6.97;3.90;;;;;;;22.97;38.83;99558.50;4331550;33;33941;-62
2023/04/22 06:37:57;;;;;;;7.93;3.67;;;;;;;22.96;38.73;99554.13;4318349;33;34033;-63
2023/04/22 06:40:26;;;;;;;8.63;3.60;;;;;;;22.95;38.57;99552.47;4303889;33;33964;-64
2023/04/22 06:42:54;;;;;;;8.85;4.10;;;;;;;22.94;38.40;99548.06;4317037;33;33494;-62
2023/04/22 06:45:24;;;;;;;6.00;3.70;;;;;;;22.92;38.31;99551.84;4316960;33;34731;-64
2023/04/22 06:47:52;;;;;;;9.10;4.10;;;;;;;22.92;38.20;99551.03;4316880;33;34487;-64
2023/04/22 06:50:21;;;;;;;11.30;3.95;;;;;;;22.90;38.19;99556.72;4317011;33;33999;-64
2023/04/22 06:52:49;;;;;;;8.02;4.37;;;;;;;22.89;38.06;99552.31;4317063;33;33356;-63
2023/04/22 06:55:17;;;;;;;9.30;4.45;;;;;;;22.89;37.97;99560.47;4316867;33;33773;-63
2023/04/22 06:57:44;;;;;;;8.90;3.20;;;;;;;22.88;37.88;99556.06;4316877;33;33807;-63
2023/04/22 07:00:12;;;;;;;5.87;3.37;;;;;;;22.88;37.93;99552.50;4303685;33;33651;-61
2023/04/22 07:02:40;;;;;;;9.73;4.18;;;;;;;22.87;37.99;99553.56;4316499;33;34576;-63
2023/04/22 07:05:08;;;;;;;7.60;3.35;;;;;;;22.87;37.99;99557.13;4316339;33;34517;-62
2023/04/22 07:07:36;;;;;;;8.20;4.12;;;;;;;22.87;38.01;99557.13;4315767;33;34105;-63
2023/04/22 07:10:05;;;;;;;5.65;3.70;;;;;;;22.86;38.02;99552.75;4316598;33;34686;-61
2023/04/22 07:12:32;;;;;;;7.95;4.15;;;;;;;22.85;38.01;99553.00;4316521;33;33296;-63
2023/04/22 07:15:00;;;;;;;7.37;3.78;;;;;;;22.86;37.98;99551.91;4318049;33;34859;-62
2023/04/22 07:17:27;;;;;;;6.57;3.08;;;;;;;22.86;37.98;99558.19;4318616;33;34725;-63
2023/04/22 07:19:55;;;;;;;8.77;3.90;;;;;;;22.86;37.96;99560.09;4318322;33;33128;-61
2023/04/22 07:22:22;;;;;;;9.82;3.92;;;;;;;22.87;37.95;99559.84;4318121;33;33149;-63
2023/04/22 07:24:50;;;;;;;10.70;4.20;;;;;;;22.86;37.91;99549.19;4318234;33;34817;-64
2023/04/22 07:27:17;;;;;;;6.87;3.20;;;;;;;22.86;37.93;99560.91;4318154;33;34778;-61
2023/04/22 07:29:45;;;;;;;8.48;3.97;;;;;;;22.86;37.94;99560.91;4317961;33;34673;-62
2023/04/22 07:32:12;;;;;;;6.43;3.85;;;;;;;22.86;37.95;99558.19;4318082;33;33623;-61
2023/04/22 07:34:40;;;;;;;7.40;3.72;;;;;;;22.86;37.99;99560.91;4316671;33;33388;-63
2023/04/22 07:37:08;;;;;;;9.35;4.15;;;;;;;22.86;37.99;99560.09;4317762;33;34021;-63
2023/04/22 07:39:36;;;;;;;9.27;3.60;;;;;;;22.87;37.93;99553.56;4327804;33;34284;-64
2023/04/22 07:42:04;;;;;;;7.47;4.18;;;;;;;22.87;37.92;99557.13;4332695;33;34043;-61
2023/04/22 07:44:31;;;;;;;10.52;4.28;;;;;;;22.87;37.94;99554.41;4332438;33;34781;-60
2023/04/22 07:46:59;;;;;;;8.15;3.85;;;;;;;22.87;37.97;99565.28;4332606;33;34042;-63
2023/04/22 07:49:26;;;;;;;11.40;4.03;;;;;;;22.88;37.96;99557.94;4332739;33;33920;-63
2023/04/22 07:51:55;;;;;;;6.15;3.30;;;;;;;22.86;37.98;99555.47;4319127;33;33680;-62
2023/04/22 07:54:23;;;;;;;8.00;4.05;;;;;;;22.87;37.97;99557.13;4331689;33;34504;-62
2023/04/22 07:56:50;;;;;;;6.40;3.35;;;;;;;22.87;37.96;99559.84;4332612;33;34843;-64
2023/04/22 07:59:18;;;;;;;9.65;4.12;;;;;;;22.88;37.96;99560.66;4332477;33;34871;-62
2023/04/22 08:01:45;;;;;;;7.78;4.35;;;;;;;22.88;37.96;99558.78;4332502;33;34444;-64
2023/04/22 08:04:13;;;;;;;8.48;4.00;;;;;;;22.88;37.96;99560.66;4332639;33;33767;-63
2023/04/22 08:06:41;;;;;;;13.00;4.00;;;;;;;22.88;37.94;99557.94;4332298;33;34123;-63
2023/04/22 08:09:09;;;;;;;8.38;4.53;;;;;;;22.89;37.94;99559.63;4318924;33;33994;-61
2023/04/22 08:11:37;;;;;;;8.93;4.00;;;;;;;22.89;37.88;99556.91;4332418;33;33252;-63
2023/04/22 08:14:04;;;;;;;10.10;4.35;;;;;;;22.90;37.93;99558.59;4332490;33;34121;-60
2023/04/22 08:16:31;;;;;;;6.22;3.85;;;;;;;22.89;37.94;99556.91;4332451;33;34744;-62
2023/04/22 08:18:59;;;;;;;8.90;4.12;;;;;;;22.89;37.87;99563.19;4332863;33;33534;-62
2023/04/22 08:21:27;;;;;;;9.60;4.70;;;;;;;22.90;37.92;99564.88;4332330;33;34222;-62
2023/04/22 08:23:54;;;;;;;8.13;4.25;;;;;;;22.89;37.96;99563.19;4332405;33;34632;-60
2023/04/22 08:26:22;;;;;;;8.50;4.22;;;;;;;22.89;37.97;99556.91;4331426;33;34030;-64
2023/04/22 08:28:50;;;;;;;8.60;4.22;;;;;;;22.90;37.97;99564.03;4335538;33;34463;-63
2023/04/22 08:31:17;;;;;;;6.70;3.83;;;;;;;22.89;37.94;99562.34;4347167;33;33346;-63
2023/04/22 08:33:45;;;;;;;7.50;4.22;;;;;;;22.90;37.86;99570.31;4346865;33;34087;-63
2023/04/22 08:36:12;;;;;;;8.63;4.45;;;;;;;22.92;37.77;99561.91;4346717;32;33987;-63
2023/04/22 08:38:40;;;;;;;9.93;4.93;;;;;;;22.91;37.66;99563.81;4329481;33;33794;-63
2023/04/22 08:41:07;;;;;;;8.48;4.25;;;;;;;22.91;37.55;99560.25;4332147;33;32746;-64
2023/04/22 10:30:39;;;;;;;6.87;4.50;;;;;;;22.86;34.00;99509.22;4665770;27;19982;-63
2023/04/22 10:33:19;;;;;;;8.80;5.18;;;;;;;22.86;34.14;99506.50;4355075;32;33841;-66
2023/04/22 10:36:09;;;;;;;8.20;4.75;;;;;;;22.88;34.35;99509.81;4346371;33;33515;-64
2023/04/22 10:38:38;;;;;;;8.90;5.20;;;;;;;22.91;34.36;99500.41;4346216;32;34073;-65
2023/04/22 10:41:05;;;;;;;10.52;5.55;;;;;;;22.90;34.46;99501.47;4353926;32;33816;-66
2023/04/22 10:43:59;;;;;;;11.02;4.75;;;;;;;22.90;34.58;99498.75;4360192;32;34544;-65
2023/04/22 10:46:38;;;;;;;11.60;4.78;;;;;;;22.91;34.78;99498.50;4356148;32;33302;-65
2023/04/22 10:49:10;;;;;;;11.50;5.20;;;;;;;22.92;33.93;99493.91;4361278;32;34949;-63
2023/04/22 10:51:45;;;;;;;11.70;5.40;;;;;;;22.92;33.68;99496.63;4358128;32;34928;-61
2023/04/22 10:54:27;;;;;;;7.87;4.62;;;;;;;22.93;33.52;99498.28;4350270;32;33563;-62
2023/04/22 10:57:02;;;;;;;13.80;5.72;;;;;;;22.96;34.08;99494.28;4360926;32;34366;-63
2023/04/22 10:59:30;;;;;;;9.93;4.97;;;;;;;22.95;34.29;99496.16;4359966;32;34847;-62
2023/04/22 11:02:05;;;;;;;10.35;5.53;;;;;;;22.95;34.62;99498.87;4362274;32;35013;-61
2023/04/22 11:04:34;;;;;;;13.73;5.43;;;;;;;22.97;34.74;99495.94;4345087;32;33970;-60
2023/04/22 11:07:15;;;;;;;11.80;5.47;;;;;;;22.98;34.86;99501.12;4361073;32;33666;-64
2023/04/22 11:09:44;;;;;;;11.82;5.93;;;;;;;23.02;34.95;99493.34;4360028;32;33625;-62
2023/04/22 11:12:34;;;;;;;12.20;5.72;;;;;;;23.01;35.19;99494.41;4357874;32;34093;-66
2023/04/22 11:15:14;;;;;;;13.98;5.82;;;;;;;23.02;35.42;99502.31;4360521;32;34093;-65
2023/04/22 11:17:43;;;;;;;9.90;5.62;;;;;;;23.01;35.59;99497.13;4361915;32;33435;-65
2023/04/22 11:20:11;;;;;;;8.70;4.85;;;;;;;22.99;35.68;99491.94;4357604;32;34383;-63
2023/04/22 11:22:41;;;;;;;10.10;5.53;;;;;;;22.98;35.68;99487.53;4376136;32;34575;-63
2023/04/22 11:25:09;;;;;;;14.63;5.90;;;;;;;23.00;35.73;99499.03;4363289;32;33808;-64
2023/04/22 11:27:37;;;;;;;11.73;5.57;;;;;;;23.01;35.71;99497.13;4369511;32;33481;-65
2023/04/22 11:30:06;;;;;;;10.30;5.37;;;;;;;23.03;35.91;99497.72;4350183;32;33655;-63
2023/04/22 11:32:35;;;;;;;18.90;6.00;;;;;;;23.03;36.07;99493.09;4347890;32;33875;-63
2023/04/22 11:35:07;;;;;;;12.15;4.87;;;;;;;23.04;36.13;99500.22;4358728;32;34779;-65
2023/04/22 11:37:40;;;;;;;12.52;5.03;;;;;;;23.04;36.24;99493.97;4359307;32;33420;-61
2023/04/22 11:40:13;;;;;;;16.33;6.32;;;;;;;23.06;36.33;99484.47;4362200;32;34048;-63
2023/04/22 11:42:57;;;;;;;12.15;5.35;;;;;;;23.05;36.43;99501.06;4359538;32;34159;-62
2023/04/22 11:45:25;;;;;;;14.65;5.65;;;;;;;23.06;36.46;99495.38;4361920;32;34550;-63
2023/04/22 11:47:52;;;;;;;12.35;5.22;;;;;;;23.07;36.46;99491.56;4360537;32;33880;-62
2023/04/22 11:50:21;;;;;;;11.73;5.65;;;;;;;23.06;36.33;99487.19;4359098;32;34708;-60
2023/04/22 11:53:03;;;;;;;11.10;5.25;;;;;;;23.07;36.29;99485.31;4359142;32;35067;-61
2023/04/22 11:55:34;;;;;;;11.77;5.87;;;;;;;23.06;36.25;99484.47;4361090;32;33924;-65
2023/04/22 11:58:09;;;;;;;10.15;5.12;;;;;;;23.05;36.04;99485.56;4359989;32;34342;-63
2023/04/22 12:00:42;;;;;;;9.10;5.00;;;;;;;23.03;35.55;99479.50;4360042;32;33471;-65
2023/04/22 12:03:14;;;;;;;18.45;6.60;;;;;;;23.05;35.18;99471.94;4355322;32;33925;-62
2023/04/22 12:05:45;;;;;;;11.65;5.28;;;;;;;23.05;35.09;99477.38;4346431;33;34739;-64
2023/04/22 12:08:15;;;;;;;11.55;5.25;;;;;;;23.05;35.17;99473.84;4351788;32;33739;-64
2023/04/22 12:10:44;;;;;;;11.18;4.97;;;;;;;23.04;35.21;99486.62;4361004;32;33676;-65
2023/04/22 12:13:22;;;;;;;9.13;5.20;;;;;;;23.05;34.79;99473.84;4347629;33;33477;-65
2023/04/22 12:15:55;;;;;;;8.80;5.10;;;;;;;23.06;34.80;99475.50;4347218;32;34782;-65
2023/04/22 12:18:33;;;;;;;8.70;5.60;;;;;;;23.05;34.83;99477.38;4355644;32;33343;-65
2023/04/22 12:21:11;;;;;;;10.25;5.07;;;;;;;23.07;34.83;99477.16;4350690;32;34388;-65
2023/04/22 12:24:05;;;;;;;9.35;5.97;;;;;;;23.05;34.91;99474.66;4355039;32;34894;-64
2023/04/22 12:26:33;;;;;;;11.20;5.15;;;;;;;23.05;34.93;99476.56;4354974;32;33846;-65
2023/04/22 12:29:00;;;;;;;11.93;5.60;;;;;;;23.05;34.95;99471.94;4361593;32;32572;-65
2023/04/22 12:31:28;;;;;;;7.55;5.00;;;;;;;23.05;35.02;99473.84;4350418;32;33769;-65
2023/04/22 12:33:56;;;;;;;12.50;5.18;;;;;;;23.05;35.11;99471.94;4347500;32;34084;-66
2023/04/22 12:36:24;;;;;;;11.18;6.03;;;;;;;23.04;35.13;99467.56;4347572;33;33885;-62
2023/04/22 12:38:51;;;;;;;10.57;5.22;;;;;;;23.03;35.19;99468.59;4340529;32;33865;-63
2023/04/22 12:41:19;;;;;;;11.05;5.72;;;;;;;23.04;35.03;99470.28;4361572;32;33764;-61
2023/04/22 12:43:47;;;;;;;9.52;5.68;;;;;;;23.04;35.05;99456.69;4357809;32;33992;-65
2023/04/22 12:46:14;;;;;;;9.68;5.00;;;;;;;23.03;35.04;99463.16;4359906;32;34125;-64
2023/04/22 12:48:42;;;;;;;9.05;5.70;;;;;;;23.04;35.06;99462.13;4360674;32;33330;-65
2023/04/22 12:51:09;;;;;;;8.77;5.85;;;;;;;23.04;34.96;99456.69;4361581;32;33299;-65
2023/04/22 12:53:37;;;;;;;8.63;5.50;;;;;;;23.03;34.85;99457.72;4359158;32;33901;-65
2023/04/22 12:56:04;;;;;;;12.02;5.70;;;;;;;23.03;34.75;99454.19;4360094;32;33600;-63
2023/04/22 12:58:32;;;;;;;9.77;5.68;;;;;;;23.04;34.68;99453.13;4359933;32;33410;-65
2023/04/22 13:00:59;;;;;;;10.07;5.30;;;;;;;23.04;34.73;99453.97;4350612;32;33790;-65
2023/04/22 13:03:27;;;;;;;8.77;5.43;;;;;;;23.04;34.78;99448.53;4346897;32;33778;-65
2023/04/22 13:05:55;;;;;;;14.82;5.93;;;;;;;23.06;34.53;99445.56;4361393;32;32822;-64
2023/04/22 13:08:22;;;;;;;12.18;6.53;;;;;;;23.07;34.39;99437.16;4357145;32;33885;-66
2023/04/22 13:10:50;;;;;;;13.77;5.53;;;;;;;23.07;34.22;99429.00;4361042;32;34133;-64
2023/04/22 13:13:18;;;;;;;9.13;5.37;;;;;;;23.07;34.08;99428.16;4355801;32;34022;-65
2023/04/22 13:15:51;;;;;;;10.85;6.18;;;;;;;23.09;33.68;99436.94;4350618;32;33941;-61
2023/04/22 13:18:21;;;;;;;9.88;5.35;;;;;;;23.09;33.79;99432.31;4355606;32;33559;-63
2023/04/22 13:20:49;;;;;;;13.57;5.78;;;;;;;23.09;33.60;99447.81;4346456;32;34612;-63
2023/04/22 13:23:20;;;;;;;12.75;6.30;;;;;;;23.09;33.40;99440.50;4347287;33;33991;-64
2023/04/22 13:25:49;;;;;;;11.85;5.97;;;;;;;23.08;33.09;99430.66;4346623;32;34156;-64